createdAt,value
2022-09-24T00:01:22.941Z,101293.25
2022-09-24T00:03:51.597Z,101284.53
2022-09-24T00:06:20.016Z,101285.66
2022-09-24T00:08:47.742Z,101286.50
2022-09-24T00:11:15.221Z,101292.13
2022-09-24T00:13:42.198Z,101290.16
2022-09-24T00:16:11.117Z,101281.72
2022-09-24T00:18:38.257Z,101290.16
2022-09-24T00:21:15.534Z,101283.06
2022-09-24T00:23:42.528Z,101288.16
2022-09-24T00:26:21.494Z,101288.16
2022-09-24T00:28:50.387Z,101291.28
2022-09-24T00:31:17.637Z,101291.81
2022-09-24T00:33:44.513Z,101290.16
2022-09-24T00:36:11.374Z,101291.28
2022-09-24T00:38:38.074Z,101282.88
2022-09-24T00:41:05.181Z,101285.66
2022-09-24T00:43:37.189Z,101282.88
2022-09-24T00:46:24.485Z,101284.00
2022-09-24T00:49:03.315Z,101282.88
2022-09-24T00:51:31.722Z,101280.06
2022-09-24T00:54:07.086Z,101278.91
2022-09-24T00:56:37.015Z,101268.47
2022-09-24T00:59:04.971Z,101276.09
2022-09-24T01:01:32.107Z,101278.59
2022-09-24T01:03:59.798Z,101279.44
2022-09-24T01:06:27.161Z,101283.06
2022-09-24T01:08:56.222Z,101279.44
2022-09-24T01:11:44.502Z,101287.56
2022-09-24T01:14:28.756Z,101277.16
2022-09-24T01:16:58.644Z,101273.50
2022-09-24T01:19:43.250Z,101279.44
2022-09-24T01:22:36.510Z,101275.78
2022-09-24T01:25:06.319Z,101273.81
2022-09-24T01:27:50.083Z,101269.66
2022-09-24T01:30:16.885Z,101274.09
2022-09-24T01:32:59.075Z,101261.50
2022-09-24T01:35:40.468Z,101262.06
2022-09-24T01:38:10.090Z,101260.03
2022-09-24T01:40:45.760Z,101247.16
2022-09-24T01:43:13.644Z,101252.78
2022-09-24T01:45:41.020Z,101257.25
2022-09-24T01:48:08.274Z,101253.63
2022-09-24T01:50:40.869Z,101251.94
2022-09-24T01:53:20.259Z,101251.94
2022-09-24T01:55:50.102Z,101255.88
2022-09-24T01:58:38.097Z,101250.25
2022-09-24T02:01:11.290Z,101254.75
2022-09-24T02:03:44.035Z,101259.84
2022-09-24T02:06:17.147Z,101262.66
2022-09-24T02:08:48.363Z,101267.13
2022-09-24T02:11:16.650Z,101264.31
2022-09-24T02:13:55.529Z,101258.69
2022-09-24T02:16:26.856Z,101265.44
2022-09-24T02:18:56.816Z,101262.66
2022-09-24T02:21:24.624Z,101259.84
2022-09-24T02:23:54.008Z,101255.88
2022-09-24T02:26:20.936Z,101251.09
2022-09-24T02:28:48.020Z,101247.47
2022-09-24T02:31:17.097Z,101250.25
2022-09-24T02:34:04.503Z,101244.09
2022-09-24T02:36:32.218Z,101242.97
2022-09-24T02:38:59.488Z,101245.78
2022-09-24T02:41:26.552Z,101249.72
2022-09-24T02:43:59.521Z,101248.09
2022-09-24T02:46:26.601Z,101242.97
2022-09-24T02:48:53.517Z,101243.81
2022-09-24T02:51:20.610Z,101236.84
2022-09-24T02:53:47.701Z,101236.00
2022-09-24T02:56:33.606Z,101238.81
2022-09-24T02:59:23.253Z,101240.16
2022-09-24T03:02:14.503Z,101233.19
2022-09-24T03:05:03.739Z,101235.16
2022-09-24T03:07:30.692Z,101232.34
2022-09-24T03:09:57.928Z,101231.50
2022-09-24T03:12:25.268Z,101228.69
2022-09-24T03:14:52.226Z,101232.66
2022-09-24T03:17:19.135Z,101228.16
2022-09-24T03:19:45.964Z,101234.94
2022-09-24T03:22:13.021Z,101235.47
2022-09-24T03:24:39.870Z,101243.38
2022-09-24T03:27:06.786Z,101234.63
2022-09-24T03:29:52.003Z,101232.97
2022-09-24T03:32:18.877Z,101238.28
2022-09-24T03:34:45.737Z,101240.56
2022-09-24T03:37:12.734Z,101238.59
2022-09-24T03:39:39.595Z,101236.91
2022-09-24T03:42:06.514Z,101243.38
2022-09-24T03:44:33.116Z,101236.06
2022-09-24T03:46:59.991Z,101234.09
2022-09-24T03:49:27.152Z,101244.50
2022-09-24T03:51:54.072Z,101242.53
2022-09-24T03:54:20.974Z,101240.56
2022-09-24T03:56:47.795Z,101243.66
2022-09-24T03:59:15.432Z,101242.53
2022-09-24T04:01:42.443Z,101254.91
2022-09-24T04:04:09.712Z,101254.91
2022-09-24T04:06:36.755Z,101252.09
2022-09-24T04:09:03.780Z,101259.69
2022-09-24T04:11:30.860Z,101260.53
2022-09-24T04:13:59.212Z,101261.66
2022-09-24T04:16:32.227Z,101260.00
2022-09-24T04:18:59.121Z,101259.19
2022-09-24T04:21:26.944Z,101267.28
2022-09-24T04:23:53.835Z,101267.28
2022-09-24T04:26:21.143Z,101260.81
2022-09-24T04:28:48.082Z,101269.59
2022-09-24T04:31:17.122Z,101264.47
2022-09-24T04:33:44.095Z,101252.72
2022-09-24T04:36:11.145Z,101255.81
2022-09-24T04:38:37.946Z,101258.34
2022-09-24T04:41:06.179Z,101251.88
2022-09-24T04:43:33.612Z,101256.66
2022-09-24T04:46:02.412Z,101264.25
2022-09-24T04:48:30.296Z,101258.06
2022-09-24T04:50:58.017Z,101255.00
2022-09-24T04:53:25.210Z,101261.75
2022-09-24T04:55:52.110Z,101264.84
2022-09-24T04:58:19.362Z,101266.81
2022-09-24T05:00:52.624Z,101267.94
2022-09-24T05:03:21.942Z,101261.50
2022-09-24T05:05:49.336Z,101263.47
2022-09-24T05:08:16.745Z,101262.63
2022-09-24T05:10:54.499Z,101273.03
2022-09-24T05:13:22.175Z,101267.09
2022-09-24T05:15:49.164Z,101274.69
2022-09-24T05:18:16.075Z,101271.38
2022-09-24T05:20:49.836Z,101273.03
2022-09-24T05:23:17.087Z,101275.31
2022-09-24T05:26:02.562Z,101276.44
2022-09-24T05:28:29.481Z,101278.13
2022-09-24T05:30:58.579Z,101289.38
2022-09-24T05:33:25.963Z,101285.44
2022-09-24T05:35:56.546Z,101291.63
2022-09-24T05:38:23.566Z,101284.38
2022-09-24T05:41:00.516Z,101296.13
2022-09-24T05:43:32.112Z,101307.34
2022-09-24T05:45:59.220Z,101306.53
2022-09-24T05:48:26.264Z,101299.22
2022-09-24T05:50:55.849Z,101295.59
2022-09-24T05:53:25.960Z,101304.84
2022-09-24T05:55:52.974Z,101305.69
2022-09-24T05:58:20.792Z,101299.22
2022-09-24T06:00:52.462Z,101308.50
2022-09-24T06:03:20.307Z,101309.66
2022-09-24T06:05:52.588Z,101314.44
2022-09-24T06:08:20.893Z,101319.22
2022-09-24T06:10:51.074Z,101326.50
2022-09-24T06:13:19.174Z,101321.19
2022-09-24T06:15:46.509Z,101326.81
2022-09-24T06:18:19.945Z,101331.56
2022-09-24T06:20:51.970Z,101333.84
2022-09-24T06:23:19.165Z,101336.34
2022-09-24T06:25:49.786Z,101337.19
2022-09-24T06:28:16.707Z,101335.84
2022-09-24T06:30:52.223Z,101332.19
2022-09-24T06:33:20.528Z,101343.44
2022-09-24T06:35:48.694Z,101340.63
2022-09-24T06:38:16.698Z,101343.44
2022-09-24T06:40:46.893Z,101344.56
2022-09-24T06:43:13.882Z,101349.63
2022-09-24T06:45:43.100Z,101351.03
2022-09-24T06:48:11.087Z,101350.47
2022-09-24T06:50:55.409Z,101364.50
2022-09-24T06:53:22.991Z,101365.66
2022-09-24T06:55:50.332Z,101358.91
2022-09-24T06:58:21.126Z,101364.50
2022-09-24T07:00:54.471Z,101367.31
2022-09-24T07:03:22.119Z,101367.66
2022-09-24T07:05:49.984Z,101373.84
2022-09-24T07:08:17.498Z,101373.25
2022-09-24T07:10:51.952Z,101375.53
2022-09-24T07:13:23.018Z,101375.53
2022-09-24T07:15:50.719Z,101381.13
2022-09-24T07:18:18.203Z,101384.50
2022-09-24T07:20:55.367Z,101389.28
2022-09-24T07:23:22.351Z,101381.97
2022-09-24T07:25:49.820Z,101379.19
2022-09-24T07:28:16.878Z,101383.94
2022-09-24T07:30:56.543Z,101386.22
2022-09-24T07:33:23.299Z,101390.47
2022-09-24T07:35:51.258Z,101384.56
2022-09-24T07:38:18.178Z,101385.69
2022-09-24T07:40:58.752Z,101386.81
2022-09-24T07:43:25.493Z,101382.88
2022-09-24T07:45:53.002Z,101386.53
2022-09-24T07:48:20.048Z,101398.91
2022-09-24T07:50:46.761Z,101397.22
2022-09-24T07:53:13.493Z,101392.72
2022-09-24T07:55:41.080Z,101402.00
2022-09-24T07:58:16.979Z,101405.63
2022-09-24T08:00:53.685Z,101403.97
2022-09-24T08:03:20.591Z,101414.28
2022-09-24T08:05:47.283Z,101401.94
2022-09-24T08:08:15.051Z,101417.59
2022-09-24T08:10:54.386Z,101417.78
2022-09-24T08:13:25.346Z,101420.50
2022-09-24T08:15:59.542Z,101420.78
2022-09-24T08:18:26.351Z,101422.69
2022-09-24T08:20:53.551Z,101425.72
2022-09-24T08:23:20.974Z,101435.75
2022-09-24T08:25:47.815Z,101425.59
2022-09-24T08:28:17.216Z,101429.16
2022-09-24T08:30:50.013Z,101431.06
2022-09-24T08:33:16.833Z,101435.78
2022-09-24T08:35:43.465Z,101434.31
2022-09-24T08:38:10.050Z,101437.91
2022-09-24T08:40:42.886Z,101437.00
2022-09-24T08:43:17.800Z,101437.22
2022-09-24T08:46:13.214Z,101446.44
2022-09-24T08:48:54.501Z,101447.50
2022-09-24T08:51:23.319Z,101444.09
2022-09-24T08:53:53.413Z,101442.34
2022-09-24T08:56:32.624Z,101448.47
2022-09-24T08:59:11.755Z,101446.72
2022-09-24T09:01:44.760Z,101453.41
2022-09-24T09:04:26.582Z,101455.66
2022-09-24T09:07:02.369Z,101442.09
2022-09-24T09:09:41.602Z,101451.00
2022-09-24T09:12:29.010Z,101453.81
2022-09-24T09:15:08.849Z,101445.69
2022-09-24T09:17:42.598Z,101447.34
2022-09-24T09:20:18.144Z,101449.03
2022-09-24T09:22:48.996Z,101448.72
2022-09-24T09:25:18.429Z,101440.25
2022-09-24T09:27:46.075Z,101439.13
2022-09-24T09:30:14.528Z,101452.56
2022-09-24T09:32:48.711Z,101436.53
2022-09-24T09:35:19.756Z,101447.50
2022-09-24T09:37:46.562Z,101449.69
2022-09-24T09:40:32.311Z,101440.09
2022-09-24T09:43:00.167Z,101451.91
2022-09-24T09:45:45.335Z,101456.16
2022-09-24T09:48:16.833Z,101453.97
2022-09-24T09:50:54.072Z,101455.94
2022-09-24T09:53:25.271Z,101447.50
2022-09-24T09:55:59.713Z,101454.16
2022-09-24T09:58:27.965Z,101447.69
2022-09-24T10:01:06.286Z,101451.34
2022-09-24T10:03:34.715Z,101441.47
2022-09-24T10:06:02.288Z,101448.75
2022-09-24T10:08:29.579Z,101449.09
2022-09-24T10:11:03.216Z,101443.97
2022-09-24T10:13:32.423Z,101450.44
2022-09-24T10:16:09.540Z,101447.09
2022-09-24T10:18:38.861Z,101446.28
2022-09-24T10:21:09.186Z,101445.44
2022-09-24T10:23:37.868Z,101447.09
2022-09-24T10:26:04.953Z,101445.94
2022-09-24T10:28:51.088Z,101449.59
2022-09-24T10:31:25.573Z,101443.97
2022-09-24T10:33:54.113Z,101445.09
2022-09-24T10:36:22.479Z,101440.31
2022-09-24T10:38:49.710Z,101442.00
2022-09-24T10:41:34.865Z,101441.16
2022-09-24T10:44:14.035Z,101435.53
2022-09-24T10:46:40.682Z,101435.53
2022-09-24T10:49:25.495Z,101441.69
2022-09-24T10:52:04.153Z,101445.34
2022-09-24T10:54:42.371Z,101438.88
2022-09-24T10:57:27.401Z,101439.47
2022-09-24T11:00:02.814Z,101435.09
2022-09-24T11:02:35.364Z,101441.66
2022-09-24T11:05:11.125Z,101440.19
2022-09-24T11:07:44.844Z,101443.00
2022-09-24T11:10:30.520Z,101440.50
2022-09-24T11:13:15.655Z,101440.50
2022-09-24T11:15:54.784Z,101447.88
2022-09-24T11:18:35.333Z,101442.84
2022-09-24T11:21:15.452Z,101444.31
2022-09-24T11:24:04.970Z,101440.13
2022-09-24T11:27:05.472Z,101440.13
2022-09-24T11:29:37.964Z,101439.00
2022-09-24T11:32:16.590Z,101444.31
2022-09-24T11:35:05.701Z,101435.34
2022-09-24T11:37:44.498Z,101434.72
2022-09-24T11:40:14.252Z,101435.34
2022-09-24T11:42:52.675Z,101431.09
2022-09-24T11:45:24.770Z,101430.84
2022-09-24T11:47:54.504Z,101432.53
2022-09-24T11:50:29.236Z,101432.00
2022-09-24T11:52:55.844Z,101426.38
2022-09-24T11:55:26.237Z,101436.19
2022-09-24T11:57:57.661Z,101435.88
2022-09-24T12:00:28.439Z,101425.13
2022-09-24T12:03:20.905Z,101427.66
2022-09-24T12:05:54.658Z,101420.88
2022-09-24T12:08:32.779Z,101425.06
2022-09-24T12:11:07.366Z,101422.53
2022-09-24T12:13:39.139Z,101422.25
2022-09-24T12:16:12.397Z,101414.94
2022-09-24T12:18:54.960Z,101417.75
2022-09-24T12:21:24.222Z,101427.03
2022-09-24T12:23:51.863Z,101427.34
2022-09-24T12:26:20.541Z,101429.34
2022-09-24T12:29:38.258Z,101434.13
2022-09-24T12:32:44.042Z,101425.69
2022-09-24T12:35:19.549Z,101434.97
2022-09-24T12:37:48.934Z,101428.16
2022-09-24T12:40:26.278Z,101420.56
2022-09-24T12:42:57.174Z,101426.19
2022-09-24T12:45:24.999Z,101429.34
2022-09-24T12:47:53.883Z,101426.53
2022-09-24T12:50:28.561Z,101426.53
2022-09-24T12:52:55.603Z,101427.34
2022-09-24T12:55:26.749Z,101433.00
2022-09-24T12:57:53.367Z,101435.81
2022-09-24T13:00:32.226Z,101434.13
2022-09-24T13:02:59.121Z,101433.00
2022-09-24T13:05:27.978Z,101430.16
2022-09-24T13:08:14.471Z,101437.78
2022-09-24T13:10:53.390Z,101429.00
2022-09-24T13:13:42.891Z,101426.19
2022-09-24T13:16:20.645Z,101428.16
2022-09-24T13:18:55.210Z,101426.19
2022-09-24T13:21:24.395Z,101427.03
2022-09-24T13:23:51.358Z,101418.91
2022-09-24T13:26:20.925Z,101421.41
2022-09-24T13:28:48.903Z,101431.81
2022-09-24T13:31:18.576Z,101421.41
2022-09-24T13:33:48.085Z,101418.59
2022-09-24T13:36:14.823Z,101422.25
2022-09-24T13:38:53.602Z,101418.59
2022-09-24T13:41:38.694Z,101423.09
2022-09-24T13:44:15.502Z,101408.47
2022-09-24T13:46:45.194Z,101411.00
2022-09-24T13:49:16.449Z,101412.97
2022-09-24T13:51:44.961Z,101414.94
2022-09-24T13:54:23.861Z,101415.78
2022-09-24T13:57:09.366Z,101416.63
2022-09-24T13:59:35.930Z,101416.63
2022-09-24T14:02:02.841Z,101405.34
2022-09-24T14:04:30.282Z,101408.16
2022-09-24T14:06:58.466Z,101417.75
2022-09-24T14:09:27.469Z,101419.72
2022-09-24T14:11:56.429Z,101433.00
2022-09-24T14:14:24.721Z,101424.84
2022-09-24T14:16:55.190Z,101430.47
2022-09-24T14:19:23.283Z,101431.59
2022-09-24T14:21:54.635Z,101437.22
2022-09-24T14:24:26.438Z,101424.63
2022-09-24T14:26:55.967Z,101435.03
2022-09-24T14:29:27.035Z,101434.19
2022-09-24T14:31:56.748Z,101441.81
2022-09-24T14:34:35.367Z,101434.50
2022-09-24T14:37:16.327Z,101427.19
2022-09-24T14:39:44.341Z,101433.16
2022-09-24T14:42:20.955Z,101432.28
2022-09-24T14:44:47.797Z,101424.47
2022-09-24T14:47:27.939Z,101425.59
2022-09-24T14:49:55.307Z,101428.09
2022-09-24T14:52:29.009Z,101422.44
2022-09-24T14:55:22.690Z,101426.94
2022-09-24T14:57:52.874Z,101424.75
2022-09-24T15:00:26.539Z,101420.25
2022-09-24T15:03:28.668Z,101427.88
2022-09-24T15:06:13.731Z,101425.38
2022-09-24T15:08:41.665Z,101423.38
2022-09-24T15:11:15.236Z,101420.88
2022-09-24T15:13:42.253Z,101414.41
2022-09-24T15:16:18.074Z,101422.31
2022-09-24T15:18:45.077Z,101417.53
2022-09-24T15:21:13.112Z,101418.66
2022-09-24T15:23:39.759Z,101416.19
2022-09-24T15:26:06.511Z,101425.75
2022-09-24T15:28:33.091Z,101415.63
2022-09-24T15:30:59.683Z,101418.16
2022-09-24T15:33:26.349Z,101427.72
2022-09-24T15:35:53.097Z,101423.56
2022-09-24T15:38:20.163Z,101434.47
2022-09-24T15:40:54.081Z,101430.03
2022-09-24T15:43:24.894Z,101429.19
2022-09-24T15:45:52.152Z,101428.63
2022-09-24T15:48:19.091Z,101437.91
2022-09-24T15:50:56.994Z,101441.03
2022-09-24T15:53:26.319Z,101442.19
2022-09-24T15:55:54.721Z,101447.81
2022-09-24T15:58:21.867Z,101444.16
2022-09-24T16:00:52.852Z,101450.91
2022-09-24T16:03:25.126Z,101452.88
2022-09-24T16:05:52.101Z,101459.66
2022-09-24T16:08:18.752Z,101462.47
2022-09-24T16:10:56.941Z,101455.16
2022-09-24T16:13:23.686Z,101459.97
2022-09-24T16:15:50.353Z,101459.97
2022-09-24T16:18:18.063Z,101466.72
2022-09-24T16:20:55.649Z,101455.47
2022-09-24T16:23:22.209Z,101465.88
2022-09-24T16:25:56.200Z,101462.25
2022-09-24T16:28:22.929Z,101470.69
2022-09-24T16:30:54.732Z,101471.81
2022-09-24T16:33:21.834Z,101470.13
2022-09-24T16:35:48.605Z,101471.28
2022-09-24T16:38:20.297Z,101479.72
2022-09-24T16:40:59.142Z,101478.88
2022-09-24T16:43:25.919Z,101478.06
2022-09-24T16:45:52.483Z,101478.88
2022-09-24T16:48:30.333Z,101480.84
2022-09-24T16:54:04.249Z,101493.53
2022-09-24T16:56:48.047Z,101495.81
2022-09-24T16:59:18.976Z,101499.78
2022-09-24T17:01:54.061Z,101501.44
2022-09-24T17:04:27.944Z,101496.97
2022-09-24T17:07:02.910Z,101498.94
2022-09-24T17:09:53.400Z,101516.94
2022-09-24T17:12:23.477Z,101521.75
2022-09-24T17:14:50.207Z,101527.38
2022-09-24T17:17:16.908Z,101520.06
2022-09-24T17:19:43.520Z,101531.31
2022-09-24T17:22:10.258Z,101525.97
2022-09-24T17:24:40.262Z,101524.00
2022-09-24T17:27:07.907Z,101524.31
2022-09-24T17:29:34.585Z,101529.94
2022-09-24T17:32:01.286Z,101532.75
2022-09-24T17:34:30.461Z,101533.91
2022-09-24T17:37:00.726Z,101533.91
2022-09-24T17:39:31.104Z,101535.03
2022-09-24T17:41:58.085Z,101535.31
2022-09-24T17:44:25.766Z,101543.47
2022-09-24T17:46:52.765Z,101555.00
2022-09-24T17:49:20.856Z,101551.34
2022-09-24T17:51:57.867Z,101556.13
2022-09-24T17:54:30.024Z,101558.94
2022-09-24T17:56:56.934Z,101560.91
2022-09-24T17:59:27.002Z,101572.16
2022-09-24T18:01:54.202Z,101564.88
2022-09-24T18:04:22.239Z,101572.47
2022-09-24T18:06:49.416Z,101580.91
2022-09-24T18:09:16.702Z,101579.22
2022-09-24T18:11:43.816Z,101584.00
2022-09-24T18:14:15.769Z,101587.94
2022-09-24T18:16:42.356Z,101585.97
2022-09-24T18:19:10.454Z,101592.72
2022-09-24T18:21:37.323Z,101593.06
2022-09-24T18:24:04.748Z,101600.34
2022-09-24T18:26:36.028Z,101605.44
2022-09-24T18:29:06.230Z,101609.91
2022-09-24T18:31:33.513Z,101614.69
2022-09-24T18:34:06.046Z,101616.38
2022-09-24T18:36:33.808Z,101610.22
2022-09-24T18:39:00.550Z,101613.88
2022-09-24T18:41:28.471Z,101622.59
2022-09-24T18:43:55.804Z,101623.41
2022-09-24T18:46:23.329Z,101618.94
2022-09-24T18:48:51.679Z,101628.53
2022-09-24T18:51:19.838Z,101636.63
2022-09-24T18:53:50.884Z,101633.31
2022-09-24T18:56:17.508Z,101641.41
2022-09-24T18:58:44.911Z,101647.34
2022-09-24T19:01:11.589Z,101644.84
2022-09-24T19:03:39.810Z,101649.31
2022-09-24T19:06:10.245Z,101662.53
2022-09-24T19:08:38.167Z,101659.72
2022-09-24T19:11:11.110Z,101647.94
2022-09-24T19:13:43.332Z,101665.63
2022-09-24T19:16:11.448Z,101664.78
2022-09-24T19:18:38.174Z,101672.41
2022-09-24T19:21:08.009Z,101674.06
2022-09-24T19:23:45.399Z,101669.91
2022-09-24T19:26:13.168Z,101667.94
2022-09-24T19:28:41.182Z,101676.66
2022-09-24T19:31:13.404Z,101677.47
2022-09-24T19:33:40.819Z,101685.06
2022-09-24T19:36:07.927Z,101679.44
2022-09-24T19:38:35.845Z,101694.34
2022-09-24T19:41:04.013Z,101687.03
2022-09-24T19:43:34.320Z,101685.34
2022-09-24T19:46:05.973Z,101694.63
2022-09-24T19:48:36.034Z,101691.28
2022-09-24T19:51:04.239Z,101692.13
2022-09-24T19:53:33.831Z,101698.88
2022-09-24T19:56:19.098Z,101703.66
2022-09-24T19:58:46.706Z,101698.03
2022-09-24T20:01:16.994Z,101705.63
2022-09-24T20:03:44.608Z,101708.44
2022-09-24T20:06:12.746Z,101698.31
2022-09-24T20:08:39.469Z,101699.16
2022-09-24T20:11:07.348Z,101714.34
2022-09-24T20:13:34.450Z,101710.72
2022-09-24T20:16:02.945Z,101717.16
2022-09-24T20:18:30.077Z,101715.50
2022-09-24T20:20:56.847Z,101717.47
2022-09-24T20:23:23.901Z,101711.00
2022-09-24T20:26:12.488Z,101720.28
2022-09-24T20:28:40.591Z,101726.19
2022-09-24T20:31:11.173Z,101729.84
2022-09-24T20:33:40.511Z,101727.03
2022-09-24T20:36:15.222Z,101718.59
2022-09-24T20:38:44.226Z,101712.97
2022-09-24T20:41:11.742Z,101722.53
2022-09-24T20:43:38.431Z,101716.06
2022-09-24T20:46:10.554Z,101716.91
2022-09-24T20:48:37.476Z,101709.63
2022-09-24T20:51:07.871Z,101715.22
2022-09-24T20:53:35.478Z,101720.84
2022-09-24T20:56:02.217Z,101722.00
2022-09-24T20:58:29.017Z,101722.00
2022-09-24T21:00:55.667Z,101726.78
2022-09-24T21:03:42.846Z,101723.13
2022-09-24T21:06:11.856Z,101731.56
2022-09-24T21:08:39.627Z,101731.56
2022-09-24T21:11:10.386Z,101726.22
2022-09-24T21:14:00.517Z,101735.50
2022-09-24T21:16:29.169Z,101725.38
2022-09-24T21:18:55.914Z,101731.84
2022-09-24T21:21:22.570Z,101732.94
2022-09-24T21:23:50.827Z,101736.63
2022-09-24T21:26:18.714Z,101741.38
2022-09-24T21:28:46.908Z,101731.28
2022-09-24T21:31:14.574Z,101736.91
2022-09-24T21:33:51.836Z,101726.78
2022-09-24T21:36:18.754Z,101737.19
2022-09-24T21:38:57.001Z,101735.22
2022-09-24T21:41:24.841Z,101731.56
2022-09-24T21:43:53.666Z,101733.53
2022-09-24T21:46:20.430Z,101736.34
2022-09-24T21:48:47.058Z,101735.50
2022-09-24T21:51:15.135Z,101741.13
2022-09-24T21:53:41.724Z,101735.50
2022-09-24T21:56:08.290Z,101738.63
2022-09-24T21:58:35.048Z,101744.25
2022-09-24T22:01:04.968Z,101741.44
2022-09-24T22:03:32.063Z,101747.88
2022-09-24T22:06:03.624Z,101744.25
2022-09-24T22:08:31.986Z,101740.59
2022-09-24T22:11:08.658Z,101743.69
2022-09-24T22:13:37.410Z,101743.41
2022-09-24T22:16:04.933Z,101741.72
2022-09-24T22:18:31.673Z,101736.09
2022-09-24T22:20:58.596Z,101732.44
2022-09-24T22:23:25.337Z,101740.88
2022-09-24T22:25:55.988Z,101741.16
2022-09-24T22:28:25.454Z,101742.00
2022-09-24T22:30:53.180Z,101735.84
2022-09-24T22:33:38.571Z,101740.03
2022-09-24T22:36:05.371Z,101742.31
2022-09-24T22:38:32.399Z,101741.47
2022-09-24T22:41:02.997Z,101752.41
2022-09-24T22:43:30.013Z,101755.53
2022-09-24T22:46:04.704Z,101760.00
2022-09-24T22:48:32.260Z,101759.19
2022-09-24T22:50:58.925Z,101754.13
2022-09-24T22:53:26.001Z,101766.19
2022-09-24T22:56:12.869Z,101759.75
2022-09-24T22:58:43.473Z,101763.38
2022-09-24T23:01:11.698Z,101758.06
2022-09-24T23:03:38.375Z,101763.69
2022-09-24T23:06:06.367Z,101768.47
2022-09-24T23:08:36.445Z,101759.50
2022-09-24T23:11:19.656Z,101756.69
2022-09-24T23:13:47.890Z,101760.63
2022-09-24T23:16:14.492Z,101759.78
2022-09-24T23:18:42.183Z,101760.94
2022-09-24T23:21:10.233Z,101768.19
2022-09-24T23:23:37.247Z,101764.00
2022-09-24T23:26:05.317Z,101763.19
2022-09-24T23:28:36.094Z,101767.94
2022-09-24T23:31:04.658Z,101772.72
2022-09-24T23:33:35.269Z,101762.63
2022-09-24T23:36:02.685Z,101760.97
2022-09-24T23:38:33.899Z,101763.75
2022-09-24T23:41:03.576Z,101764.88
2022-09-24T23:43:32.687Z,101762.09
2022-09-24T23:46:00.607Z,101767.97
2022-09-24T23:48:28.272Z,101757.59
2022-09-24T23:51:02.091Z,101763.47
2022-09-24T23:53:30.790Z,101748.63
2022-09-24T23:55:58.227Z,101762.38
2022-09-24T23:58:26.897Z,101756.22
